sensor_id;sensor_type;location;lat;lon;timestamp;temperature;humidity
11704;DHT22;5908;51.354;7.458;2024-02-28T00:01:08;4.80;99.90
11704;DHT22;5908;51.354;7.458;2024-02-28T00:03:36;4.90;99.90
11704;DHT22;5908;51.354;7.458;2024-02-28T00:06:03;4.90;99.90
11704;DHT22;5908;51.354;7.458;2024-02-28T00:08:29;5.00;99.90
11704;DHT22;5908;51.354;7.458;2024-02-28T00:10:56;5.10;99.90
11704;DHT22;5908;51.354;7.458;2024-02-28T00:13:23;5.20;99.90
11704;DHT22;5908;51.354;7.458;2024-02-28T00:15:49;5.20;99.90
11704;DHT22;5908;51.354;7.458;2024-02-28T00:18:16;5.20;99.90
11704;DHT22;5908;51.354;7.458;2024-02-28T00:20:45;5.30;99.90
11704;DHT22;5908;51.354;7.458;2024-02-28T00:23:11;5.30;99.90
11704;DHT22;5908;51.354;7.458;2024-02-28T00:25:38;5.20;99.90
11704;DHT22;5908;51.354;7.458;2024-02-28T00:28:04;5.10;99.90
11704;DHT22;5908;51.354;7.458;2024-02-28T00:30:31;5.20;99.90
11704;DHT22;5908;51.354;7.458;2024-02-28T00:32:58;5.20;99.90
11704;DHT22;5908;51.354;7.458;2024-02-28T00:35:24;5.30;99.90
11704;DHT22;5908;51.354;7.458;2024-02-28T00:37:52;5.40;99.90
11704;DHT22;5908;51.354;7.458;2024-02-28T00:40:19;5.40;99.90
11704;DHT22;5908;51.354;7.458;2024-02-28T00:42:45;5.40;99.90
11704;DHT22;5908;51.354;7.458;2024-02-28T00:45:12;5.30;99.90
11704;DHT22;5908;51.354;7.458;2024-02-28T00:47:39;5.20;99.90
11704;DHT22;5908;51.354;7.458;2024-02-28T00:50:05;5.20;99.90
11704;DHT22;5908;51.354;7.458;2024-02-28T00:52:32;5.20;99.90
11704;DHT22;5908;51.354;7.458;2024-02-28T00:55:00;5.20;99.90
11704;DHT22;5908;51.354;7.458;2024-02-28T00:57:27;5.20;99.90
11704;DHT22;5908;51.354;7.458;2024-02-28T00:59:53;5.30;99.90
11704;DHT22;5908;51.354;7.458;2024-02-28T01:02:20;5.20;99.90
11704;DHT22;5908;51.354;7.458;2024-02-28T01:04:47;5.30;99.90
11704;DHT22;5908;51.354;7.458;2024-02-28T01:07:13;5.20;99.90
11704;DHT22;5908;51.354;7.458;2024-02-28T01:09:40;5.10;99.90
11704;DHT22;5908;51.354;7.458;2024-02-28T01:12:08;5.00;99.90
11704;DHT22;5908;51.354;7.458;2024-02-28T01:14:34;5.10;99.90
11704;DHT22;5908;51.354;7.458;2024-02-28T01:17:01;5.10;99.90
11704;DHT22;5908;51.354;7.458;2024-02-28T01:19:27;5.10;99.90
11704;DHT22;5908;51.354;7.458;2024-02-28T01:21:54;5.00;99.90
11704;DHT22;5908;51.354;7.458;2024-02-28T01:24:21;4.80;99.90
11704;DHT22;5908;51.354;7.458;2024-02-28T01:26:48;4.70;99.90
11704;DHT22;5908;51.354;7.458;2024-02-28T01:29:16;4.90;99.90
11704;DHT22;5908;51.354;7.458;2024-02-28T01:31:42;5.00;99.90
11704;DHT22;5908;51.354;7.458;2024-02-28T01:34:09;4.90;99.90
11704;DHT22;5908;51.354;7.458;2024-02-28T01:36:35;4.90;99.90
11704;DHT22;5908;51.354;7.458;2024-02-28T01:39:02;5.00;99.90
11704;DHT22;5908;51.354;7.458;2024-02-28T01:41:29;5.10;99.90
11704;DHT22;5908;51.354;7.458;2024-02-28T01:43:55;5.20;99.90
11704;DHT22;5908;51.354;7.458;2024-02-28T01:46:24;5.30;99.90
11704;DHT22;5908;51.354;7.458;2024-02-28T01:48:51;5.00;99.90
11704;DHT22;5908;51.354;7.458;2024-02-28T01:51:18;4.70;99.90
11704;DHT22;5908;51.354;7.458;2024-02-28T01:53:45;4.80;99.90
11704;DHT22;5908;51.354;7.458;2024-02-28T01:56:12;4.80;99.90
11704;DHT22;5908;51.354;7.458;2024-02-28T01:58:41;5.00;99.90
11704;DHT22;5908;51.354;7.458;2024-02-28T02:01:08;5.00;99.90
11704;DHT22;5908;51.354;7.458;2024-02-28T02:03:37;5.00;99.90
11704;DHT22;5908;51.354;7.458;2024-02-28T02:06:04;5.10;99.90
11704;DHT22;5908;51.354;7.458;2024-02-28T02:08:31;5.10;99.90
11704;DHT22;5908;51.354;7.458;2024-02-28T02:10:59;5.20;99.90
11704;DHT22;5908;51.354;7.458;2024-02-28T02:13:25;5.30;99.90
11704;DHT22;5908;51.354;7.458;2024-02-28T02:15:52;5.20;99.90
11704;DHT22;5908;51.354;7.458;2024-02-28T02:18:18;5.30;99.90
11704;DHT22;5908;51.354;7.458;2024-02-28T02:20:48;5.10;99.90
11704;DHT22;5908;51.354;7.458;2024-02-28T02:23:17;5.00;99.90
11704;DHT22;5908;51.354;7.458;2024-02-28T02:25:44;5.00;99.90
11704;DHT22;5908;51.354;7.458;2024-02-28T02:28:11;5.00;99.90
11704;DHT22;5908;51.354;7.458;2024-02-28T02:30:37;4.90;99.90
11704;DHT22;5908;51.354;7.458;2024-02-28T02:33:04;4.80;99.90
11704;DHT22;5908;51.354;7.458;2024-02-28T02:35:31;4.70;99.90
11704;DHT22;5908;51.354;7.458;2024-02-28T02:37:57;4.80;99.90
11704;DHT22;5908;51.354;7.458;2024-02-28T02:40:25;4.90;99.90
11704;DHT22;5908;51.354;7.458;2024-02-28T02:42:52;4.90;99.90
11704;DHT22;5908;51.354;7.458;2024-02-28T02:45:18;4.90;99.90
11704;DHT22;5908;51.354;7.458;2024-02-28T02:47:45;5.00;99.90
11704;DHT22;5908;51.354;7.458;2024-02-28T02:50:11;5.00;99.90
11704;DHT22;5908;51.354;7.458;2024-02-28T02:52:38;5.00;99.90
11704;DHT22;5908;51.354;7.458;2024-02-28T02:55:05;5.10;99.90
11704;DHT22;5908;51.354;7.458;2024-02-28T02:57:33;5.10;99.90
11704;DHT22;5908;51.354;7.458;2024-02-28T03:00:00;5.10;99.90
11704;DHT22;5908;51.354;7.458;2024-02-28T03:02:27;5.10;99.90
11704;DHT22;5908;51.354;7.458;2024-02-28T03:04:53;5.10;99.90
11704;DHT22;5908;51.354;7.458;2024-02-28T03:07:20;5.10;99.90
11704;DHT22;5908;51.354;7.458;2024-02-28T03:09:46;5.20;99.90
11704;DHT22;5908;51.354;7.458;2024-02-28T03:12:13;5.00;99.90
11704;DHT22;5908;51.354;7.458;2024-02-28T03:14:41;4.90;99.90
11704;DHT22;5908;51.354;7.458;2024-02-28T03:17:08;5.00;99.90
11704;DHT22;5908;51.354;7.458;2024-02-28T03:19:35;5.20;99.90
11704;DHT22;5908;51.354;7.458;2024-02-28T03:22:01;5.20;99.90
11704;DHT22;5908;51.354;7.458;2024-02-28T03:24:28;5.30;99.90
11704;DHT22;5908;51.354;7.458;2024-02-28T03:26:55;5.30;99.90
11704;DHT22;5908;51.354;7.458;2024-02-28T03:29:21;5.30;99.90
11704;DHT22;5908;51.354;7.458;2024-02-28T03:31:49;5.00;99.90
11704;DHT22;5908;51.354;7.458;2024-02-28T03:34:16;4.60;99.90
11704;DHT22;5908;51.354;7.458;2024-02-28T03:36:42;4.70;99.90
11704;DHT22;5908;51.354;7.458;2024-02-28T03:39:09;4.90;99.90
11704;DHT22;5908;51.354;7.458;2024-02-28T03:41:35;5.00;99.90
11704;DHT22;5908;51.354;7.458;2024-02-28T03:44:02;5.10;99.90
11704;DHT22;5908;51.354;7.458;2024-02-28T03:46:29;5.10;99.90
11704;DHT22;5908;51.354;7.458;2024-02-28T03:48:56;5.00;99.90
11704;DHT22;5908;51.354;7.458;2024-02-28T03:51:23;5.00;99.90
11704;DHT22;5908;51.354;7.458;2024-02-28T03:53:50;5.00;99.90
11704;DHT22;5908;51.354;7.458;2024-02-28T03:56:21;5.10;99.90
11704;DHT22;5908;51.354;7.458;2024-02-28T03:58:48;5.10;99.90
11704;DHT22;5908;51.354;7.458;2024-02-28T04:01:14;5.20;99.90
11704;DHT22;5908;51.354;7.458;2024-02-28T04:03:41;5.00;99.90
11704;DHT22;5908;51.354;7.458;2024-02-28T04:06:09;5.00;99.90
11704;DHT22;5908;51.354;7.458;2024-02-28T04:08:35;5.00;99.90
11704;DHT22;5908;51.354;7.458;2024-02-28T04:11:02;4.80;99.90
11704;DHT22;5908;51.354;7.458;2024-02-28T04:13:29;4.80;99.90
11704;DHT22;5908;51.354;7.458;2024-02-28T04:15:55;4.80;99.90
11704;DHT22;5908;51.354;7.458;2024-02-28T04:18:22;4.70;99.90
11704;DHT22;5908;51.354;7.458;2024-02-28T04:20:48;4.70;99.90
11704;DHT22;5908;51.354;7.458;2024-02-28T04:23:16;4.60;99.90
11704;DHT22;5908;51.354;7.458;2024-02-28T04:25:43;4.70;99.90
11704;DHT22;5908;51.354;7.458;2024-02-28T04:28:09;4.60;99.90
11704;DHT22;5908;51.354;7.458;2024-02-28T04:30:36;4.70;99.90
11704;DHT22;5908;51.354;7.458;2024-02-28T04:33:03;4.70;99.90
11704;DHT22;5908;51.354;7.458;2024-02-28T04:35:29;4.70;99.90
11704;DHT22;5908;51.354;7.458;2024-02-28T04:37:56;4.70;99.90
11704;DHT22;5908;51.354;7.458;2024-02-28T04:40:24;4.60;99.90
11704;DHT22;5908;51.354;7.458;2024-02-28T04:42:51;4.60;99.90
11704;DHT22;5908;51.354;7.458;2024-02-28T04:45:17;4.60;99.90
11704;DHT22;5908;51.354;7.458;2024-02-28T04:47:44;4.60;99.90
11704;DHT22;5908;51.354;7.458;2024-02-28T04:50:11;4.50;99.90
11704;DHT22;5908;51.354;7.458;2024-02-28T04:52:37;4.50;99.90
11704;DHT22;5908;51.354;7.458;2024-02-28T04:55:04;4.50;99.90
11704;DHT22;5908;51.354;7.458;2024-02-28T04:57:32;4.50;99.90
11704;DHT22;5908;51.354;7.458;2024-02-28T04:59:59;4.30;99.90
11704;DHT22;5908;51.354;7.458;2024-02-28T05:02:25;4.40;99.90
11704;DHT22;5908;51.354;7.458;2024-02-28T05:04:52;4.50;99.90
11704;DHT22;5908;51.354;7.458;2024-02-28T05:07:18;4.70;99.90
11704;DHT22;5908;51.354;7.458;2024-02-28T05:09:45;4.80;99.90
11704;DHT22;5908;51.354;7.458;2024-02-28T05:12:12;4.90;99.90
11704;DHT22;5908;51.354;7.458;2024-02-28T05:14:40;5.10;99.90
11704;DHT22;5908;51.354;7.458;2024-02-28T05:17:06;5.20;99.90
11704;DHT22;5908;51.354;7.458;2024-02-28T05:19:33;5.40;99.90
11704;DHT22;5908;51.354;7.458;2024-02-28T05:21:59;5.50;99.90
11704;DHT22;5908;51.354;7.458;2024-02-28T05:24:27;5.50;99.90
11704;DHT22;5908;51.354;7.458;2024-02-28T05:26:53;5.40;99.90
11704;DHT22;5908;51.354;7.458;2024-02-28T05:29:20;5.50;99.90
11704;DHT22;5908;51.354;7.458;2024-02-28T05:31:48;5.60;99.90
11704;DHT22;5908;51.354;7.458;2024-02-28T05:34:15;5.50;99.90
11704;DHT22;5908;51.354;7.458;2024-02-28T05:36:42;5.50;99.90
11704;DHT22;5908;51.354;7.458;2024-02-28T05:39:09;5.60;99.90
11704;DHT22;5908;51.354;7.458;2024-02-28T05:41:35;5.60;99.90
11704;DHT22;5908;51.354;7.458;2024-02-28T05:44:02;5.70;99.90
11704;DHT22;5908;51.354;7.458;2024-02-28T05:46:29;5.70;99.90
11704;DHT22;5908;51.354;7.458;2024-02-28T05:48:57;5.80;99.90
11704;DHT22;5908;51.354;7.458;2024-02-28T05:51:24;5.90;99.90
11704;DHT22;5908;51.354;7.458;2024-02-28T05:53:50;5.90;99.90
11704;DHT22;5908;51.354;7.458;2024-02-28T05:56:17;5.90;99.90
11704;DHT22;5908;51.354;7.458;2024-02-28T05:58:45;5.90;99.90
11704;DHT22;5908;51.354;7.458;2024-02-28T06:01:12;5.90;99.90
11704;DHT22;5908;51.354;7.458;2024-02-28T06:03:40;5.80;99.90
11704;DHT22;5908;51.354;7.458;2024-02-28T06:06:08;5.80;99.90
11704;DHT22;5908;51.354;7.458;2024-02-28T06:08:37;5.90;99.90
11704;DHT22;5908;51.354;7.458;2024-02-28T06:11:04;6.10;99.90
11704;DHT22;5908;51.354;7.458;2024-02-28T06:13:31;6.10;99.90
11704;DHT22;5908;51.354;7.458;2024-02-28T06:15:58;6.10;99.90
11704;DHT22;5908;51.354;7.458;2024-02-28T06:18:25;6.10;99.90
11704;DHT22;5908;51.354;7.458;2024-02-28T06:20:52;6.20;99.90
11704;DHT22;5908;51.354;7.458;2024-02-28T06:23:21;6.20;99.90
11704;DHT22;5908;51.354;7.458;2024-02-28T06:25:47;6.00;99.90
11704;DHT22;5908;51.354;7.458;2024-02-28T06:28:14;5.90;99.90
11704;DHT22;5908;51.354;7.458;2024-02-28T06:30:41;6.00;99.90
11704;DHT22;5908;51.354;7.458;2024-02-28T06:33:08;6.10;99.90
11704;DHT22;5908;51.354;7.458;2024-02-28T06:35:35;6.10;99.90
11704;DHT22;5908;51.354;7.458;2024-02-28T06:38:01;6.20;99.90
11704;DHT22;5908;51.354;7.458;2024-02-28T06:40:29;6.30;99.90
11704;DHT22;5908;51.354;7.458;2024-02-28T06:42:56;6.20;99.90
11704;DHT22;5908;51.354;7.458;2024-02-28T06:45:22;6.10;99.90
11704;DHT22;5908;51.354;7.458;2024-02-28T06:47:49;6.10;99.90
11704;DHT22;5908;51.354;7.458;2024-02-28T06:50:16;6.00;99.90
11704;DHT22;5908;51.354;7.458;2024-02-28T06:52:43;6.10;99.90
11704;DHT22;5908;51.354;7.458;2024-02-28T06:55:09;6.20;99.90
11704;DHT22;5908;51.354;7.458;2024-02-28T06:57:39;6.40;99.90
11704;DHT22;5908;51.354;7.458;2024-02-28T07:00:06;6.50;99.90
11704;DHT22;5908;51.354;7.458;2024-02-28T07:02:34;6.60;99.90
11704;DHT22;5908;51.354;7.458;2024-02-28T07:05:01;6.70;99.90
11704;DHT22;5908;51.354;7.458;2024-02-28T07:07:28;6.70;99.90
11704;DHT22;5908;51.354;7.458;2024-02-28T07:09:55;6.70;99.90
11704;DHT22;5908;51.354;7.458;2024-02-28T07:12:22;6.70;99.90
11704;DHT22;5908;51.354;7.458;2024-02-28T07:14:51;6.60;99.90
11704;DHT22;5908;51.354;7.458;2024-02-28T07:17:18;6.60;99.90
11704;DHT22;5908;51.354;7.458;2024-02-28T07:19:44;6.40;99.90
11704;DHT22;5908;51.354;7.458;2024-02-28T07:22:11;6.40;99.90
11704;DHT22;5908;51.354;7.458;2024-02-28T07:24:37;6.30;99.90
11704;DHT22;5908;51.354;7.458;2024-02-28T07:27:04;6.30;99.90
11704;DHT22;5908;51.354;7.458;2024-02-28T07:29:31;6.30;99.90
11704;DHT22;5908;51.354;7.458;2024-02-28T07:31:59;6.20;99.90
11704;DHT22;5908;51.354;7.458;2024-02-28T07:34:27;6.30;99.90
11704;DHT22;5908;51.354;7.458;2024-02-28T07:36:54;6.30;99.90
11704;DHT22;5908;51.354;7.458;2024-02-28T07:39:20;6.30;99.90
11704;DHT22;5908;51.354;7.458;2024-02-28T07:41:47;6.40;99.90
11704;DHT22;5908;51.354;7.458;2024-02-28T07:44:14;6.50;99.90
11704;DHT22;5908;51.354;7.458;2024-02-28T07:46:40;6.50;99.90
11704;DHT22;5908;51.354;7.458;2024-02-28T07:49:08;6.60;99.90
11704;DHT22;5908;51.354;7.458;2024-02-28T07:51:36;6.50;99.90
11704;DHT22;5908;51.354;7.458;2024-02-28T07:54:05;6.70;99.90
11704;DHT22;5908;51.354;7.458;2024-02-28T07:56:32;6.90;99.90
11704;DHT22;5908;51.354;7.458;2024-02-28T07:58:59;7.00;99.90
11704;DHT22;5908;51.354;7.458;2024-02-28T08:01:25;7.10;99.90
11704;DHT22;5908;51.354;7.458;2024-02-28T08:03:52;7.30;99.90
11704;DHT22;5908;51.354;7.458;2024-02-28T08:06:20;7.50;99.90
11704;DHT22;5908;51.354;7.458;2024-02-28T08:08:47;7.80;99.90
11704;DHT22;5908;51.354;7.458;2024-02-28T08:11:13;8.10;99.90
11704;DHT22;5908;51.354;7.458;2024-02-28T08:13:40;8.20;99.90
11704;DHT22;5908;51.354;7.458;2024-02-28T08:16:07;8.10;99.90
11704;DHT22;5908;51.354;7.458;2024-02-28T08:18:34;8.00;99.90
11704;DHT22;5908;51.354;7.458;2024-02-28T08:21:01;7.90;99.90
11704;DHT22;5908;51.354;7.458;2024-02-28T08:23:30;7.90;99.90
11704;DHT22;5908;51.354;7.458;2024-02-28T08:25:57;7.80;99.90
11704;DHT22;5908;51.354;7.458;2024-02-28T08:28:23;7.80;99.90
11704;DHT22;5908;51.354;7.458;2024-02-28T08:30:50;7.70;99.90
11704;DHT22;5908;51.354;7.458;2024-02-28T08:33:17;7.70;99.90
11704;DHT22;5908;51.354;7.458;2024-02-28T08:35:43;7.70;99.90
11704;DHT22;5908;51.354;7.458;2024-02-28T08:38:10;7.70;99.90
11704;DHT22;5908;51.354;7.458;2024-02-28T08:40:38;7.70;99.90
11704;DHT22;5908;51.354;7.458;2024-02-28T08:43:04;7.80;99.90
11704;DHT22;5908;51.354;7.458;2024-02-28T08:45:31;7.70;99.90
11704;DHT22;5908;51.354;7.458;2024-02-28T08:47:57;7.50;99.90
11704;DHT22;5908;51.354;7.458;2024-02-28T08:50:26;7.50;99.90
11704;DHT22;5908;51.354;7.458;2024-02-28T08:52:53;7.50;99.90
11704;DHT22;5908;51.354;7.458;2024-02-28T08:55:20;7.60;99.90
11704;DHT22;5908;51.354;7.458;2024-02-28T08:57:48;7.60;99.90
11704;DHT22;5908;51.354;7.458;2024-02-28T09:00:15;7.70;99.90
11704;DHT22;5908;51.354;7.458;2024-02-28T09:02:43;7.80;99.90
11704;DHT22;5908;51.354;7.458;2024-02-28T09:05:09;8.10;99.90
11704;DHT22;5908;51.354;7.458;2024-02-28T09:07:36;8.30;99.90
11704;DHT22;5908;51.354;7.458;2024-02-28T09:10:03;8.50;99.90
11704;DHT22;5908;51.354;7.458;2024-02-28T09:12:30;8.70;99.90
11704;DHT22;5908;51.354;7.458;2024-02-28T09:14:58;8.90;99.90
11704;DHT22;5908;51.354;7.458;2024-02-28T09:17:25;9.00;99.90
11704;DHT22;5908;51.354;7.458;2024-02-28T09:19:52;9.20;99.70
11704;DHT22;5908;51.354;7.458;2024-02-28T09:22:18;9.30;99.10
11704;DHT22;5908;51.354;7.458;2024-02-28T09:24:46;9.50;99.90
11704;DHT22;5908;51.354;7.458;2024-02-28T09:27:13;9.90;98.90
11704;DHT22;5908;51.354;7.458;2024-02-28T09:29:40;10.20;97.80
11704;DHT22;5908;51.354;7.458;2024-02-28T09:32:08;10.30;97.20
11704;DHT22;5908;51.354;7.458;2024-02-28T09:34:35;10.50;96.70
11704;DHT22;5908;51.354;7.458;2024-02-28T09:39:30;10.90;94.90
11704;DHT22;5908;51.354;7.458;2024-02-28T09:41:57;11.20;95.00
11704;DHT22;5908;51.354;7.458;2024-02-28T09:44:24;10.80;95.70
11704;DHT22;5908;51.354;7.458;2024-02-28T09:46:52;10.70;96.30
11704;DHT22;5908;51.354;7.458;2024-02-28T09:49:20;10.60;96.00
11704;DHT22;5908;51.354;7.458;2024-02-28T09:51:49;10.50;95.80
11704;DHT22;5908;51.354;7.458;2024-02-28T09:54:16;10.50;95.30
11704;DHT22;5908;51.354;7.458;2024-02-28T09:56:43;10.50;95.50
11704;DHT22;5908;51.354;7.458;2024-02-28T09:59:10;10.60;95.20
11704;DHT22;5908;51.354;7.458;2024-02-28T10:01:43;10.60;95.40
11704;DHT22;5908;51.354;7.458;2024-02-28T10:04:10;10.80;95.30
11704;DHT22;5908;51.354;7.458;2024-02-28T10:06:40;11.00;94.80
11704;DHT22;5908;51.354;7.458;2024-02-28T10:09:07;11.20;94.20
11704;DHT22;5908;51.354;7.458;2024-02-28T10:11:36;11.30;94.00
11704;DHT22;5908;51.354;7.458;2024-02-28T10:14:03;11.20;93.70
11704;DHT22;5908;51.354;7.458;2024-02-28T10:16:30;11.00;93.80
11704;DHT22;5908;51.354;7.458;2024-02-28T10:18:56;11.00;94.10
11704;DHT22;5908;51.354;7.458;2024-02-28T10:21:24;10.90;94.50
11704;DHT22;5908;51.354;7.458;2024-02-28T10:23:53;10.90;94.10
11704;DHT22;5908;51.354;7.458;2024-02-28T10:26:19;11.10;94.00
11704;DHT22;5908;51.354;7.458;2024-02-28T10:28:46;11.00;93.70
11704;DHT22;5908;51.354;7.458;2024-02-28T10:31:14;10.90;93.70
11704;DHT22;5908;51.354;7.458;2024-02-28T10:33:41;10.90;93.80
11704;DHT22;5908;51.354;7.458;2024-02-28T10:36:09;10.90;93.40
11704;DHT22;5908;51.354;7.458;2024-02-28T10:38:37;10.70;93.50
11704;DHT22;5908;51.354;7.458;2024-02-28T10:41:05;10.60;93.70
11704;DHT22;5908;51.354;7.458;2024-02-28T10:43:33;10.70;94.00
11704;DHT22;5908;51.354;7.458;2024-02-28T10:46:01;10.60;93.50
11704;DHT22;5908;51.354;7.458;2024-02-28T10:48:28;10.40;93.80
11704;DHT22;5908;51.354;7.458;2024-02-28T10:50:55;10.50;93.80
11704;DHT22;5908;51.354;7.458;2024-02-28T10:53:26;10.40;93.70
11704;DHT22;5908;51.354;7.458;2024-02-28T10:55:55;10.60;93.60
11704;DHT22;5908;51.354;7.458;2024-02-28T10:58:29;10.60;93.40
11704;DHT22;5908;51.354;7.458;2024-02-28T11:01:00;10.70;93.40
11704;DHT22;5908;51.354;7.458;2024-02-28T11:03:28;10.70;93.50
11704;DHT22;5908;51.354;7.458;2024-02-28T11:05:54;10.80;93.10
11704;DHT22;5908;51.354;7.458;2024-02-28T11:08:22;10.70;93.00
11704;DHT22;5908;51.354;7.458;2024-02-28T11:10:55;10.70;92.90
11704;DHT22;5908;51.354;7.458;2024-02-28T11:13:22;10.70;92.70
11704;DHT22;5908;51.354;7.458;2024-02-28T11:15:50;10.60;92.60
11704;DHT22;5908;51.354;7.458;2024-02-28T11:18:17;10.60;92.50
11704;DHT22;5908;51.354;7.458;2024-02-28T11:20:44;10.60;92.50
11704;DHT22;5908;51.354;7.458;2024-02-28T11:23:13;10.60;92.00
11704;DHT22;5908;51.354;7.458;2024-02-28T11:25:41;10.60;92.00
11704;DHT22;5908;51.354;7.458;2024-02-28T11:28:08;10.70;92.00
11704;DHT22;5908;51.354;7.458;2024-02-28T11:30:35;10.70;91.80
11704;DHT22;5908;51.354;7.458;2024-02-28T11:33:04;10.70;92.00
11704;DHT22;5908;51.354;7.458;2024-02-28T11:35:33;10.70;91.90
11704;DHT22;5908;51.354;7.458;2024-02-28T11:38:00;10.60;91.90
11704;DHT22;5908;51.354;7.458;2024-02-28T11:40:27;10.60;91.80
11704;DHT22;5908;51.354;7.458;2024-02-28T11:42:54;10.70;91.70
11704;DHT22;5908;51.354;7.458;2024-02-28T11:45:21;10.80;91.70
11704;DHT22;5908;51.354;7.458;2024-02-28T11:47:49;10.90;91.80
11704;DHT22;5908;51.354;7.458;2024-02-28T11:50:17;10.90;91.20
11704;DHT22;5908;51.354;7.458;2024-02-28T11:52:44;11.10;91.10
11704;DHT22;5908;51.354;7.458;2024-02-28T11:55:11;11.20;90.80
11704;DHT22;5908;51.354;7.458;2024-02-28T11:57:38;11.20;90.70
11704;DHT22;5908;51.354;7.458;2024-02-28T12:00:07;11.20;90.70
11704;DHT22;5908;51.354;7.458;2024-02-28T12:02:34;11.20;90.60
11704;DHT22;5908;51.354;7.458;2024-02-28T12:05:02;11.20;90.50
11704;DHT22;5908;51.354;7.458;2024-02-28T12:07:30;11.20;90.70
11704;DHT22;5908;51.354;7.458;2024-02-28T12:09:58;11.20;91.00
11704;DHT22;5908;51.354;7.458;2024-02-28T12:12:24;11.40;91.00
11704;DHT22;5908;51.354;7.458;2024-02-28T12:14:51;11.30;90.90
11704;DHT22;5908;51.354;7.458;2024-02-28T12:17:18;11.20;90.90
11704;DHT22;5908;51.354;7.458;2024-02-28T12:19:45;11.20;90.50
11704;DHT22;5908;51.354;7.458;2024-02-28T12:22:12;11.20;90.50
11704;DHT22;5908;51.354;7.458;2024-02-28T12:24:40;11.20;90.10
11704;DHT22;5908;51.354;7.458;2024-02-28T12:27:07;11.30;90.30
11704;DHT22;5908;51.354;7.458;2024-02-28T12:29:33;11.40;90.20
11704;DHT22;5908;51.354;7.458;2024-02-28T12:32:00;11.40;88.60
11704;DHT22;5908;51.354;7.458;2024-02-28T12:34:27;11.50;89.20
11704;DHT22;5908;51.354;7.458;2024-02-28T12:36:54;11.40;89.70
11704;DHT22;5908;51.354;7.458;2024-02-28T12:39:21;11.40;90.00
11704;DHT22;5908;51.354;7.458;2024-02-28T12:41:49;11.60;90.00
11704;DHT22;5908;51.354;7.458;2024-02-28T12:44:16;11.50;89.10
11704;DHT22;5908;51.354;7.458;2024-02-28T12:46:43;11.60;88.40
11704;DHT22;5908;51.354;7.458;2024-02-28T12:49:09;11.70;88.90
11704;DHT22;5908;51.354;7.458;2024-02-28T12:51:38;11.70;88.00
11704;DHT22;5908;51.354;7.458;2024-02-28T12:54:05;11.50;88.30
11704;DHT22;5908;51.354;7.458;2024-02-28T12:56:33;11.60;89.00
11704;DHT22;5908;51.354;7.458;2024-02-28T12:59:01;11.50;88.40
11704;DHT22;5908;51.354;7.458;2024-02-28T13:01:28;11.60;88.20
11704;DHT22;5908;51.354;7.458;2024-02-28T13:03:55;11.70;88.30
11704;DHT22;5908;51.354;7.458;2024-02-28T13:06:21;11.70;88.20
11704;DHT22;5908;51.354;7.458;2024-02-28T13:08:48;11.90;88.90
11704;DHT22;5908;51.354;7.458;2024-02-28T13:11:18;12.00;87.70
11704;DHT22;5908;51.354;7.458;2024-02-28T13:13:45;12.10;86.40
11704;DHT22;5908;51.354;7.458;2024-02-28T13:16:14;12.20;86.00
11704;DHT22;5908;51.354;7.458;2024-02-28T13:18:40;12.30;86.40
11704;DHT22;5908;51.354;7.458;2024-02-28T13:21:07;12.40;86.30
11704;DHT22;5908;51.354;7.458;2024-02-28T13:23:34;12.50;84.10
11704;DHT22;5908;51.354;7.458;2024-02-28T13:26:03;12.90;82.00
11704;DHT22;5908;51.354;7.458;2024-02-28T13:28:29;13.10;80.70
11704;DHT22;5908;51.354;7.458;2024-02-28T13:30:57;13.30;80.30
11704;DHT22;5908;51.354;7.458;2024-02-28T13:33:25;13.40;80.20
11704;DHT22;5908;51.354;7.458;2024-02-28T13:35:52;13.60;80.10
11704;DHT22;5908;51.354;7.458;2024-02-28T13:38:20;14.00;79.60
11704;DHT22;5908;51.354;7.458;2024-02-28T13:40:47;14.20;78.80
11704;DHT22;5908;51.354;7.458;2024-02-28T13:43:15;14.30;78.40
11704;DHT22;5908;51.354;7.458;2024-02-28T13:45:47;14.50;77.80
11704;DHT22;5908;51.354;7.458;2024-02-28T13:48:16;14.60;76.40
11704;DHT22;5908;51.354;7.458;2024-02-28T13:50:45;14.80;76.10
11704;DHT22;5908;51.354;7.458;2024-02-28T13:53:12;14.90;76.40
11704;DHT22;5908;51.354;7.458;2024-02-28T13:55:40;15.00;76.50
11704;DHT22;5908;51.354;7.458;2024-02-28T13:58:08;14.90;75.80
11704;DHT22;5908;51.354;7.458;2024-02-28T14:00:36;14.80;76.00
11704;DHT22;5908;51.354;7.458;2024-02-28T14:03:03;14.90;74.90
11704;DHT22;5908;51.354;7.458;2024-02-28T14:05:31;15.00;75.30
11704;DHT22;5908;51.354;7.458;2024-02-28T14:07:59;15.10;75.30
11704;DHT22;5908;51.354;7.458;2024-02-28T14:10:26;15.10;75.10
11704;DHT22;5908;51.354;7.458;2024-02-28T14:12:53;15.10;74.90
11704;DHT22;5908;51.354;7.458;2024-02-28T14:15:20;15.20;73.30
11704;DHT22;5908;51.354;7.458;2024-02-28T14:17:47;15.10;72.70
11704;DHT22;5908;51.354;7.458;2024-02-28T14:20:14;15.00;72.80
11704;DHT22;5908;51.354;7.458;2024-02-28T14:22:42;15.20;71.70
11704;DHT22;5908;51.354;7.458;2024-02-28T14:25:13;15.20;72.40
11704;DHT22;5908;51.354;7.458;2024-02-28T14:27:43;15.20;72.20
11704;DHT22;5908;51.354;7.458;2024-02-28T14:30:11;15.20;72.80
11704;DHT22;5908;51.354;7.458;2024-02-28T14:32:39;15.10;72.30
11704;DHT22;5908;51.354;7.458;2024-02-28T14:35:08;15.10;72.10
11704;DHT22;5908;51.354;7.458;2024-02-28T14:37:35;15.10;72.00
11704;DHT22;5908;51.354;7.458;2024-02-28T14:40:03;15.10;72.40
11704;DHT22;5908;51.354;7.458;2024-02-28T14:42:36;15.00;72.20
11704;DHT22;5908;51.354;7.458;2024-02-28T14:45:04;15.00;72.50
11704;DHT22;5908;51.354;7.458;2024-02-28T14:47:31;14.90;72.80
11704;DHT22;5908;51.354;7.458;2024-02-28T14:49:59;14.80;73.00
11704;DHT22;5908;51.354;7.458;2024-02-28T14:52:26;14.70;73.70
11704;DHT22;5908;51.354;7.458;2024-02-28T14:54:53;14.70;74.20
11704;DHT22;5908;51.354;7.458;2024-02-28T14:57:19;14.60;74.00
11704;DHT22;5908;51.354;7.458;2024-02-28T14:59:47;14.40;74.80
11704;DHT22;5908;51.354;7.458;2024-02-28T15:02:14;14.40;75.50
11704;DHT22;5908;51.354;7.458;2024-02-28T15:04:41;14.50;76.60
11704;DHT22;5908;51.354;7.458;2024-02-28T15:07:08;14.50;76.40
11704;DHT22;5908;51.354;7.458;2024-02-28T15:09:34;14.50;76.50
11704;DHT22;5908;51.354;7.458;2024-02-28T15:12:02;14.50;75.90
11704;DHT22;5908;51.354;7.458;2024-02-28T15:14:29;14.40;75.90
11704;DHT22;5908;51.354;7.458;2024-02-28T15:16:57;14.40;76.60
11704;DHT22;5908;51.354;7.458;2024-02-28T15:19:24;14.30;76.40
11704;DHT22;5908;51.354;7.458;2024-02-28T15:21:52;14.20;77.50
11704;DHT22;5908;51.354;7.458;2024-02-28T15:24:18;14.10;77.10
11704;DHT22;5908;51.354;7.458;2024-02-28T15:26:45;14.00;77.50
11704;DHT22;5908;51.354;7.458;2024-02-28T15:29:13;14.00;78.00
11704;DHT22;5908;51.354;7.458;2024-02-28T15:31:40;13.90;78.40
11704;DHT22;5908;51.354;7.458;2024-02-28T15:34:08;13.90;78.10
11704;DHT22;5908;51.354;7.458;2024-02-28T15:36:35;13.90;78.80
11704;DHT22;5908;51.354;7.458;2024-02-28T15:39:03;13.90;78.70
11704;DHT22;5908;51.354;7.458;2024-02-28T15:41:29;13.80;78.80
11704;DHT22;5908;51.354;7.458;2024-02-28T15:43:56;13.80;78.30
11704;DHT22;5908;51.354;7.458;2024-02-28T15:46:23;13.70;78.20
11704;DHT22;5908;51.354;7.458;2024-02-28T15:48:50;13.50;78.50
11704;DHT22;5908;51.354;7.458;2024-02-28T15:51:19;13.40;78.80
11704;DHT22;5908;51.354;7.458;2024-02-28T15:53:46;13.30;79.30
11704;DHT22;5908;51.354;7.458;2024-02-28T15:56:14;12.90;80.60